Time;durP1;ratioP1;P1;durP2;ratioP2;P2;SDS_P1;SDS_P2;PMS_P1;PMS_P2;Temp;Humidity;BMP_temperature;BMP_pressure;BME280_temperature;BME280_humidity;BME280_pressure;Samples;Min_cycle;Max_cycle;Signal;HPM_P1;HPM_P2
2022/07/09 00:02:23;;;;;;;;;;;;;;;23.91;62.13;100158.13;6242102;23;19918;-74
2022/07/09 00:04:49;;;;;;;;;;;;;;;23.72;62.52;100159.03;6242448;23;19914;-74
2022/07/09 00:07:14;;;;;;;;;;;;;;;23.50;65.39;100157.66;6241995;23;19911;-73
2022/07/09 00:09:40;;;;;;;;;;;;;;;23.42;63.04;100168.63;6241142;23;19911;-74
2022/07/09 00:12:05;;;;;;;;;;;;;;;23.38;63.07;100167.41;6241712;23;19974;-74
2022/07/09 00:14:31;;;;;;;;;;;;;;;23.32;62.06;100170.94;6241481;23;19922;-72
2022/07/09 00:16:56;;;;;;;;;;;;;;;23.28;62.24;100165.97;6241328;23;20053;-74
2022/07/09 00:19:21;;;;;;;;;;;;;;;23.23;63.47;100165.78;6240922;23;19956;-73
2022/07/09 00:21:47;;;;;;;;;;;;;;;23.14;60.65;100169.72;6240809;23;19935;-74
2022/07/09 00:24:12;;;;;;;;;;;;;;;23.14;61.42;100158.97;6241229;23;20141;-73
2022/07/09 00:26:38;;;;;;;;;;;;;;;23.13;63.05;100161.84;6241924;23;20081;-74
2022/07/09 00:29:03;;;;;;;;;;;;;;;23.07;62.70;100163.53;6241654;23;19908;-74
2022/07/09 00:31:30;;;;;;;;;;;;;;;23.00;64.62;100157.31;6242646;23;19961;-74
2022/07/09 00:33:55;;;;;;;;;;;;;;;22.96;66.15;100161.47;6241023;23;19986;-74
2022/07/09 00:36:20;;;;;;;;;;;;;;;22.85;66.21;100151.34;6242657;23;19912;-75
2022/07/09 00:38:46;;;;;;;;;;;;;;;22.81;64.84;100155.47;6244245;23;19998;-75
2022/07/09 00:41:11;;;;;;;;;;;;;;;22.75;65.88;100156.28;6242715;23;19911;-74
2022/07/09 00:43:37;;;;;;;;;;;;;;;22.69;65.34;100157.06;6244544;23;19935;-75
2022/07/09 00:46:02;;;;;;;;;;;;;;;22.54;66.47;100156.47;6244237;23;19923;-76
2022/07/09 00:48:27;;;;;;;;;;;;;;;22.51;64.16;100156.84;6217940;23;19911;-73
2022/07/09 00:50:53;;;;;;;;;;;;;;;22.52;65.54;100158.50;6245470;23;20278;-74
2022/07/09 00:53:21;;;;;;;;;;;;;;;22.51;65.94;100156.84;6246030;23;19957;-75
2022/07/09 00:55:47;;;;;;;;;;;;;;;22.33;65.02;100149.38;6244182;23;19975;-75
2022/07/09 00:58:15;;;;;;;;;;;;;;;22.19;66.10;100153.09;6244571;23;19931;-74
2022/07/09 01:00:41;;;;;;;;;;;;;;;22.03;65.63;100154.31;6245145;23;20602;-74
2022/07/09 01:03:06;;;;;;;;;;;;;;;21.96;66.44;100148.06;6220125;23;19931;-74
2022/07/09 01:05:35;;;;;;;;;;;;;;;21.91;67.18;100145.13;6241573;23;19923;-74
2022/07/09 01:08:02;;;;;;;;;;;;;;;21.93;65.73;100143.88;6240671;23;20004;-73
2022/07/09 01:10:28;;;;;;;;;;;;;;;22.00;65.95;100150.16;6241098;23;19915;-74
2022/07/09 01:12:55;;;;;;;;;;;;;;;22.07;68.65;100142.13;6241159;23;19911;-74
2022/07/09 01:15:20;;;;;;;;;;;;;;;22.02;68.88;100144.59;6240921;23;20292;-74
2022/07/09 01:17:46;;;;;;;;;;;;;;;22.04;67.95;100151.38;6241312;23;19922;-75
2022/07/09 01:20:11;;;;;;;;;;;;;;;22.11;67.94;100145.22;6241431;23;19939;-74
2022/07/09 01:22:37;;;;;;;;;;;;;;;22.16;67.13;100148.94;6241112;23;19911;-75
2022/07/09 01:25:04;;;;;;;;;;;;;;;22.20;66.33;100139.47;6240094;23;20277;-74
2022/07/09 01:27:30;;;;;;;;;;;;;;;22.22;66.00;100148.13;6241013;23;19911;-74
2022/07/09 01:29:55;;;;;;;;;;;;;;;22.22;67.86;100148.13;6240862;23;20063;-74
2022/07/09 01:32:21;;;;;;;;;;;;;;;22.18;67.26;100157.63;6241222;23;19915;-74
2022/07/09 01:34:46;;;;;;;;;;;;;;;22.20;67.75;100150.22;6213781;23;19950;-73
2022/07/09 01:37:13;;;;;;;;;;;;;;;22.18;65.83;100149.56;6240884;23;19914;-74
2022/07/09 01:39:49;;;;;;;;;;;;;;;22.10;66.11;100147.06;6241551;23;20228;-74
2022/07/09 01:42:16;;;;;;;;;;;;;;;22.04;67.22;100150.56;6240554;23;19911;-74
2022/07/09 01:44:41;;;;;;;;;;;;;;;21.98;67.26;100156.75;6240740;23;19911;-74
2022/07/09 01:47:06;;;;;;;;;;;;;;;21.93;67.13;100153.81;6240553;23;19912;-73
2022/07/09 01:49:32;;;;;;;;;;;;;;;21.91;69.39;100154.00;6241485;23;20017;-75
2022/07/09 01:51:57;;;;;;;;;;;;;;;21.87;69.72;100150.06;6241319;23;19908;-74
2022/07/09 01:54:23;;;;;;;;;;;;;;;21.85;69.78;100145.94;6241658;23;20411;-75
2022/07/09 01:56:48;;;;;;;;;;;;;;;21.63;67.83;100154.09;6214174;23;19919;-75
2022/07/09 01:59:14;;;;;;;;;;;;;;;21.56;69.13;100147.03;6241429;23;19903;-73
2022/07/09 02:01:39;;;;;;;;;;;;;;;21.48;70.08;100156.09;6214955;23;19934;-74
2022/07/09 02:04:04;;;;;;;;;;;;;;;21.51;69.34;100144.94;6241426;23;20343;-74
2022/07/09 02:06:30;;;;;;;;;;;;;;;21.57;68.83;100138.78;6241931;23;19912;-74
2022/07/09 02:08:56;;;;;;;;;;;;;;;21.59;69.39;100146.66;6214826;23;19918;-73
2022/07/09 02:11:21;;;;;;;;;;;;;;;21.55;68.93;100135.50;6214798;23;19918;-73
2022/07/09 02:13:46;;;;;;;;;;;;;;;21.45;69.54;100142.22;6241157;23;19918;-73
2022/07/09 02:16:12;;;;;;;;;;;;;;;21.40;70.97;100142.84;6241588;23;20241;-74
2022/07/09 02:18:38;;;;;;;;;;;;;;;21.28;70.70;100144.41;6241550;23;20351;-74
2022/07/09 02:21:05;;;;;;;;;;;;;;;21.23;72.48;100136.13;6241277;23;20564;-73
2022/07/09 02:23:30;;;;;;;;;;;;;;;21.20;73.22;100140.06;6241796;23;19912;-74
2022/07/09 02:25:55;;;;;;;;;;;;;;;21.16;75.32;100141.44;6240334;23;19911;-73
2022/07/09 02:28:21;;;;;;;;;;;;;;;21.04;78.16;100142.16;6241155;23;19907;-75
2022/07/09 02:30:46;;;;;;;;;;;;;;;20.88;79.67;100134.41;6240717;23;19915;-74
2022/07/09 02:33:12;;;;;;;;;;;;;;;20.82;78.66;100144.06;6241375;23;19911;-73
2022/07/09 02:35:37;;;;;;;;;;;;;;;20.83;79.36;100146.56;6214336;23;20336;-74
2022/07/09 02:38:03;;;;;;;;;;;;;;;20.89;80.29;100154.84;6240481;23;19916;-73
2022/07/09 02:40:28;;;;;;;;;;;;;;;20.91;80.73;100158.19;6241471;23;19922;-74
2022/07/09 02:42:53;;;;;;;;;;;;;;;20.99;79.63;100155.34;6241061;23;20237;-73
2022/07/09 02:45:19;;;;;;;;;;;;;;;20.96;80.90;100158.44;6241301;23;19982;-75
2022/07/09 02:47:45;;;;;;;;;;;;;;;20.85;81.35;100160.59;6241075;23;19918;-72
2022/07/09 02:50:10;;;;;;;;;;;;;;;20.74;81.68;100153.09;6241540;23;19918;-74
2022/07/09 02:52:36;;;;;;;;;;;;;;;20.67;82.28;100152.22;6241575;23;20052;-74
2022/07/09 02:55:01;;;;;;;;;;;;;;;20.74;82.02;100155.75;6241157;23;19965;-73
2022/07/09 02:57:26;;;;;;;;;;;;;;;20.80;80.55;100156.84;6241007;23;19911;-74
2022/07/09 02:59:52;;;;;;;;;;;;;;;20.84;80.00;100153.59;6243514;23;19943;-73
2022/07/09 03:02:17;;;;;;;;;;;;;;;20.82;78.29;100161.00;6243945;23;20236;-73
2022/07/09 03:04:43;;;;;;;;;;;;;;;20.80;81.10;100157.66;6244270;23;19907;-74
2022/07/09 03:07:08;;;;;;;;;;;;;;;20.79;78.39;100161.38;6245501;23;19915;-74
2022/07/09 03:09:33;;;;;;;;;;;;;;;20.74;79.70;100158.44;6245987;23;19918;-74
2022/07/09 03:11:59;;;;;;;;;;;;;;;20.66;78.52;100166.66;6244507;23;20036;-73
2022/07/09 03:14:24;;;;;;;;;;;;;;;20.65;79.39;100159.63;6245909;23;19915;-74
2022/07/09 03:16:50;;;;;;;;;;;;;;;20.66;79.19;100165.81;6243691;23;19917;-75
2022/07/09 03:19:15;;;;;;;;;;;;;;;20.67;80.04;100167.47;6244690;23;19922;-75
2022/07/09 03:21:40;;;;;;;;;;;;;;;20.63;80.82;100172.38;6244838;23;19917;-75
2022/07/09 03:24:08;;;;;;;;;;;;;;;20.56;81.07;100168.00;6244711;23;19912;-74
2022/07/09 03:26:33;;;;;;;;;;;;;;;20.36;81.89;100162.44;6244505;23;20299;-73
2022/07/09 03:28:59;;;;;;;;;;;;;;;20.25;82.98;100179.00;6245392;23;19919;-74
2022/07/09 03:31:24;;;;;;;;;;;;;;;20.24;83.08;100167.44;6245719;23;19907;-74
2022/07/09 03:33:53;;;;;;;;;;;;;;;20.31;82.93;100173.72;6244038;23;19918;-73
2022/07/09 03:36:18;;;;;;;;;;;;;;;20.33;82.98;100176.22;6244386;23;20209;-74
2022/07/09 03:38:44;;;;;;;;;;;;;;;20.34;84.18;100172.50;6244471;23;19911;-74
2022/07/09 03:41:09;;;;;;;;;;;;;;;20.26;85.87;100176.09;6245511;23;19986;-74
2022/07/09 03:43:35;;;;;;;;;;;;;;;20.23;84.48;100165.78;6244822;23;19915;-73
2022/07/09 03:46:00;;;;;;;;;;;;;;;20.19;84.14;100169.03;6243106;23;19916;-74
2022/07/09 03:48:26;;;;;;;;;;;;;;;20.21;84.44;100172.34;6242937;23;19918;-74
2022/07/09 03:50:51;;;;;;;;;;;;;;;20.20;83.74;100170.69;6243123;23;19911;-73
2022/07/09 03:53:16;;;;;;;;;;;;;;;20.19;84.08;100169.03;6216371;23;19931;-74
2022/07/09 03:55:42;;;;;;;;;;;;;;;20.23;83.37;100175.66;6242711;23;19965;-72
2022/07/09 03:58:07;;;;;;;;;;;;;;;20.20;83.87;100176.88;6242827;23;19947;-73
2022/07/09 04:00:33;;;;;;;;;;;;;;;20.06;83.24;100190.31;6243159;23;19911;-73
2022/07/09 04:02:58;;;;;;;;;;;;;;;20.02;84.68;100180.00;6242919;23;19943;-73
2022/07/09 04:05:24;;;;;;;;;;;;;;;20.08;84.70;100189.13;6215951;23;19997;-73
2022/07/09 04:07:50;;;;;;;;;;;;;;;20.17;84.43;100187.13;6242497;23;19943;-74
2022/07/09 04:10:15;;;;;;;;;;;;;;;20.26;85.00;100184.13;6242126;23;19922;-74
2022/07/09 04:12:40;;;;;;;;;;;;;;;20.33;85.14;100184.25;6215997;23;19918;-74
2022/07/09 04:15:06;;;;;;;;;;;;;;;20.35;83.45;100184.91;6242801;23;19976;-73
2022/07/09 04:17:31;;;;;;;;;;;;;;;20.40;84.07;100187.84;6243101;23;19907;-74
2022/07/09 04:19:57;;;;;;;;;;;;;;;20.42;83.17;100183.13;6242273;23;19919;-74
2022/07/09 04:22:22;;;;;;;;;;;;;;;20.32;83.83;100179.94;6242880;23;19918;-72
2022/07/09 04:24:48;;;;;;;;;;;;;;;20.29;83.09;100180.25;6242603;23;19986;-74
2022/07/09 04:27:13;;;;;;;;;;;;;;;20.34;84.09;100184.06;6241797;23;19911;-73
2022/07/09 04:29:38;;;;;;;;;;;;;;;20.37;82.54;100182.88;6242094;23;20332;-73
2022/07/09 04:32:04;;;;;;;;;;;;;;;20.41;82.98;100192.19;6240153;23;19972;-72
2022/07/09 04:34:29;;;;;;;;;;;;;;;20.41;82.24;100194.84;6241916;23;19912;-74
2022/07/09 04:36:55;;;;;;;;;;;;;;;20.41;81.97;100194.84;6214530;23;19920;-73
2022/07/09 04:39:22;;;;;;;;;;;;;;;20.30;83.32;100193.47;6241850;23;19911;-73
2022/07/09 04:41:47;;;;;;;;;;;;;;;20.21;83.85;100183.06;6240800;23;19962;-73
2022/07/09 04:44:15;;;;;;;;;;;;;;;20.19;84.65;100195.84;6242231;23;19911;-73
2022/07/09 04:46:41;;;;;;;;;;;;;;;20.23;86.83;100191.75;6215163;23;19912;-73
2022/07/09 04:49:06;;;;;;;;;;;;;;;20.30;86.29;100196.16;6241678;23;20010;-73
2022/07/09 04:51:32;;;;;;;;;;;;;;;20.40;86.85;100190.50;6241437;23;19907;-74
2022/07/09 04:53:57;;;;;;;;;;;;;;;20.49;86.32;100197.44;6241301;23;19939;-73
2022/07/09 04:56:23;;;;;;;;;;;;;;;20.47;85.04;100198.63;6241481;23;19911;-73
2022/07/09 04:58:54;;;;;;;;;;;;;;;20.44;85.83;100200.66;6241371;23;19911;-74
2022/07/09 05:01:20;;;;;;;;;;;;;;;20.39;86.44;100202.25;6216471;23;19922;-74
2022/07/09 05:03:46;;;;;;;;;;;;;;;20.42;87.41;100202.72;6241730;23;19931;-74
2022/07/09 05:06:15;;;;;;;;;;;;;;;20.42;88.16;100208.06;6241843;23;19934;-73
2022/07/09 05:08:40;;;;;;;;;;;;;;;20.42;88.06;100201.88;6241621;23;19911;-74
2022/07/09 05:11:06;;;;;;;;;;;;;;;20.42;87.67;100196.53;6240981;23;19918;-74
2022/07/09 05:13:31;;;;;;;;;;;;;;;20.39;88.54;100197.72;6241547;23;19911;-74
2022/07/09 05:15:57;;;;;;;;;;;;;;;20.39;87.77;100202.25;6241321;23;19911;-73
2022/07/09 05:18:22;;;;;;;;;;;;;;;20.45;88.79;100206.84;6214968;23;19912;-73
2022/07/09 05:20:47;;;;;;;;;;;;;;;20.55;89.58;100207.38;6240718;22;19950;-75
2022/07/09 05:23:13;;;;;;;;;;;;;;;20.57;87.94;100207.16;6241257;23;19916;-74
2022/07/09 05:25:38;;;;;;;;;;;;;;;20.59;87.57;100208.66;6241455;23;19916;-74
2022/07/09 05:28:04;;;;;;;;;;;;;;;20.65;87.91;100205.22;6214149;23;19911;-73
2022/07/09 05:30:29;;;;;;;;;;;;;;;20.70;87.16;100205.47;6241301;23;19908;-73
2022/07/09 05:32:55;;;;;;;;;;;;;;;20.72;87.38;100207.94;6241121;23;19911;-73
2022/07/09 05:35:20;;;;;;;;;;;;;;;20.70;87.87;100210.81;6244983;23;19915;-74
2022/07/09 05:37:45;;;;;;;;;;;;;;;20.71;88.24;100212.47;6247019;23;20052;-73
2022/07/09 05:40:11;;;;;;;;;;;;;;;20.69;87.06;100209.16;6240983;23;19912;-73
2022/07/09 05:42:37;;;;;;;;;;;;;;;20.74;87.98;100212.09;6240774;23;19912;-73
2022/07/09 05:45:03;;;;;;;;;;;;;;;20.84;88.01;100207.25;6241011;23;19915;-73
2022/07/09 05:47:28;;;;;;;;;;;;;;;20.97;87.62;100206.50;6241356;23;19911;-73
2022/07/09 05:49:54;;;;;;;;;;;;;;;21.09;87.45;100215.69;6240886;23;19912;-73
2022/07/09 05:52:19;;;;;;;;;;;;;;;21.22;86.50;100204.25;6241257;23;19916;-74
2022/07/09 05:54:45;;;;;;;;;;;;;;;21.32;86.46;100218.19;6240762;23;19915;-75
2022/07/09 05:57:10;;;;;;;;;;;;;;;21.43;86.10;100216.81;6241078;23;19907;-73
2022/07/09 05:59:36;;;;;;;;;;;;;;;21.52;84.22;100220.97;6241260;23;19911;-74
2022/07/09 06:02:02;;;;;;;;;;;;;;;21.62;84.41;100219.59;6240933;23;19915;-74
2022/07/09 06:04:28;;;;;;;;;;;;;;;21.76;84.87;100222.34;6241437;23;19918;-72
2022/07/09 06:06:54;;;;;;;;;;;;;;;21.86;84.94;100214.75;6240946;23;19912;-74
2022/07/09 06:09:19;;;;;;;;;;;;;;;21.97;84.49;100214.22;6240950;23;19915;-74
2022/07/09 06:11:45;;;;;;;;;;;;;;;22.07;83.56;100214.69;6240247;23;19911;-73
2022/07/09 06:14:10;;;;;;;;;;;;;;;22.15;83.24;100211.78;6241095;23;19969;-74
2022/07/09 06:16:36;;;;;;;;;;;;;;;22.22;82.25;100212.66;6214457;23;19944;-74
2022/07/09 06:19:01;;;;;;;;;;;;;;;22.30;81.53;100217.03;6240708;23;19917;-74
2022/07/09 06:21:26;;;;;;;;;;;;;;;22.34;80.35;100216.41;6241060;23;19982;-73
2022/07/09 06:23:52;;;;;;;;;;;;;;;22.42;81.81;100218.09;6240687;23;19927;-74
2022/07/09 06:26:17;;;;;;;;;;;;;;;22.50;79.55;100217.91;6240763;23;19941;-75
2022/07/09 06:28:43;;;;;;;;;;;;;;;22.59;79.95;100223.91;6240731;23;19911;-75
2022/07/09 06:31:08;;;;;;;;;;;;;;;22.67;79.95;100226.41;6241564;23;20321;-74
2022/07/09 06:33:34;;;;;;;;;;;;;;;22.73;78.80;100225.63;6242970;23;20352;-74
2022/07/09 06:35:59;;;;;;;;;;;;;;;22.80;78.04;100226.44;6243917;23;19916;-75
2022/07/09 06:38:27;;;;;;;;;;;;;;;22.84;77.22;100222.31;6244238;23;19939;-74
2022/07/09 06:40:54;;;;;;;;;;;;;;;22.86;75.27;100228.31;6243137;23;19918;-74
2022/07/09 06:43:19;;;;;;;;;;;;;;;22.88;75.11;100228.94;6243712;23;19958;-73
2022/07/09 06:45:52;;;;;;;;;;;;;;;22.91;75.60;100227.72;6216689;23;19934;-73
2022/07/09 06:48:17;;;;;;;;;;;;;;;22.95;75.05;100235.16;6244025;23;19912;-73
2022/07/09 06:50:43;;;;;;;;;;;;;;;22.97;74.56;100238.50;6217096;23;19908;-73
2022/07/09 06:53:08;;;;;;;;;;;;;;;23.00;73.42;100238.06;6243747;23;19917;-73
2022/07/09 06:55:33;;;;;;;;;;;;;;;23.04;72.83;100233.06;6243931;23;19918;-73
2022/07/09 06:57:59;;;;;;;;;;;;;;;23.04;72.61;100233.91;6243031;23;19915;-73
2022/07/09 07:00:25;;;;;;;;;;;;;;;23.02;72.35;100241.38;6216603;23;19980;-73
2022/07/09 07:02:50;;;;;;;;;;;;;;;23.06;72.59;100231.84;6243342;23;19912;-73
2022/07/09 07:05:16;;;;;;;;;;;;;;;23.12;72.50;100239.09;6243884;23;19982;-73
2022/07/09 07:07:41;;;;;;;;;;;;;;;23.13;71.71;100227.31;6243726;23;20024;-72
2022/07/09 07:10:08;;;;;;;;;;;;;;;23.16;72.44;100221.47;6243660;23;19907;-73
2022/07/09 07:12:34;;;;;;;;;;;;;;;23.19;72.58;100228.34;6243043;23;19982;-72
2022/07/09 07:14:59;;;;;;;;;;;;;;;23.22;72.32;100225.22;6242923;23;19931;-72
2022/07/09 07:17:25;;;;;;;;;;;;;;;23.26;71.65;100221.91;6243025;23;19907;-73
2022/07/09 07:19:50;;;;;;;;;;;;;;;23.26;70.20;100227.28;6243319;23;19953;-74
2022/07/09 07:22:16;;;;;;;;;;;;;;;23.32;71.18;100227.50;6243420;23;19911;-74
2022/07/09 07:24:41;;;;;;;;;;;;;;;23.42;70.58;100225.19;6243213;23;19908;-74
2022/07/09 07:27:07;;;;;;;;;;;;;;;23.49;69.36;100231.44;6215594;23;20673;-74
2022/07/09 07:29:32;;;;;;;;;;;;;;;23.58;68.70;100227.47;6242996;23;19961;-74
2022/07/09 07:31:58;;;;;;;;;;;;;;;23.64;69.61;100224.75;6242057;23;20261;-74
2022/07/09 07:34:24;;;;;;;;;;;;;;;23.70;67.56;100217.69;6242487;23;19946;-74
2022/07/09 07:36:50;;;;;;;;;;;;;;;23.75;67.76;100220.56;6242297;23;20248;-74
2022/07/09 07:39:15;;;;;;;;;;;;;;;23.87;66.93;100228.84;6242010;23;19923;-74
2022/07/09 07:41:41;;;;;;;;;;;;;;;23.94;66.46;100230.47;6241570;23;19911;-73
2022/07/09 07:44:06;;;;;;;;;;;;;;;24.01;66.34;100231.28;6240131;23;19911;-73
2022/07/09 07:46:31;;;;;;;;;;;;;;;24.07;64.87;100225.03;6240072;23;20210;-74
2022/07/09 07:48:57;;;;;;;;;;;;;;;24.16;64.52;100227.47;6240160;23;19908;-74
2022/07/09 07:51:24;;;;;;;;;;;;;;;24.26;64.55;100223.31;6240011;23;20355;-74
2022/07/09 07:53:50;;;;;;;;;;;;;;;24.35;64.94;100222.00;6239948;23;19938;-74
2022/07/09 07:56:15;;;;;;;;;;;;;;;24.42;63.90;100221.97;6240136;23;19912;-75
2022/07/09 07:58:41;;;;;;;;;;;;;;;24.43;63.00;100223.63;6188415;23;19919;-74
2022/07/09 08:01:06;;;;;;;;;;;;;;;24.45;63.08;100221.53;6244274;23;20190;-73
2022/07/09 08:03:32;;;;;;;;;;;;;;;24.46;62.98;100228.59;6248175;23;20014;-72
2022/07/09 08:05:57;;;;;;;;;;;;;;;24.49;63.00;100228.16;6243665;23;19974;-73
2022/07/09 08:08:22;;;;;;;;;;;;;;;24.56;62.34;100223.56;6240299;23;20006;-73
2022/07/09 08:10:48;;;;;;;;;;;;;;;24.61;61.55;100231.84;6240233;23;19982;-73
2022/07/09 08:13:14;;;;;;;;;;;;;;;24.68;62.34;100226.41;6240428;23;19918;-74
2022/07/09 08:15:40;;;;;;;;;;;;;;;24.72;62.75;100224.91;6239651;23;19918;-73
2022/07/09 08:18:08;;;;;;;;;;;;;;;24.76;61.93;100229.63;6240074;23;19915;-74
2022/07/09 08:20:36;;;;;;;;;;;;;;;24.78;63.02;100224.84;6240379;23;19912;-74
2022/07/09 08:23:02;;;;;;;;;;;;;;;24.79;60.57;100218.41;6240534;23;19915;-73
2022/07/09 08:25:27;;;;;;;;;;;;;;;24.84;60.67;100226.69;6242129;23;19911;-73
2022/07/09 08:27:52;;;;;;;;;;;;;;;24.90;61.86;100218.78;6240144;23;19970;-74
2022/07/09 08:30:18;;;;;;;;;;;;;;;24.93;61.00;100218.31;6240414;23;19911;-74
2022/07/09 08:32:43;;;;;;;;;;;;;;;25.00;60.13;100213.72;6239789;23;19911;-73
2022/07/09 08:35:09;;;;;;;;;;;;;;;25.04;60.41;100214.91;6240624;23;19941;-75
2022/07/09 08:37:34;;;;;;;;;;;;;;;25.09;60.55;100210.53;6240541;23;19911;-72
2022/07/09 08:40:04;;;;;;;;;;;;;;;25.12;60.21;100214.66;6240279;23;19915;-73
2022/07/09 08:42:30;;;;;;;;;;;;;;;25.17;60.38;100212.09;6162342;23;1186669;-73
2022/07/09 08:44:56;;;;;;;;;;;;;;;25.20;61.20;100208.97;6241258;23;19933;-74
2022/07/09 08:47:22;;;;;;;;;;;;;;;25.22;59.88;100206.84;6214132;23;19998;-74
2022/07/09 08:49:48;;;;;;;;;;;;;;;25.27;59.73;100204.34;6241209;23;19915;-73
2022/07/09 08:52:15;;;;;;;;;;;;;;;25.33;57.65;100214.22;6241987;23;19907;-74
2022/07/09 08:54:42;;;;;;;;;;;;;;;25.39;58.24;100207.94;6241850;23;19912;-75
2022/07/09 08:57:07;;;;;;;;;;;;;;;25.38;55.97;100210.88;6213574;23;19965;-74
2022/07/09 08:59:33;;;;;;;;;;;;;;;25.38;56.31;100203.59;6241387;23;19912;-74
2022/07/09 09:02:13;;;;;;;;;;;;;;;25.42;55.49;100199.41;6213872;23;19988;-73
2022/07/09 09:04:39;;;;;;;;;;;;;;;25.46;57.38;100203.28;6241167;23;19911;-74
2022/07/09 09:07:25;;;;;;;;;;;;;;;25.57;56.21;100199.03;6240716;23;19993;-74
2022/07/09 09:09:50;;;;;;;;;;;;;;;25.58;54.79;100196.13;6240604;23;19990;-74
2022/07/09 09:12:25;;;;;;;;;;;;;;;25.61;55.08;100189.47;6241231;23;19957;-73
2022/07/09 09:14:51;;;;;;;;;;;;;;;25.65;55.09;100190.66;6241147;23;19912;-72
2022/07/09 09:17:17;;;;;;;;;;;;;;;25.69;55.49;100192.66;6241024;23;19907;-74
2022/07/09 09:19:42;;;;;;;;;;;;;;;25.75;55.10;100184.69;6241180;23;19912;-73
2022/07/09 09:22:09;;;;;;;;;;;;;;;25.77;54.51;100188.03;6240879;23;19994;-74
2022/07/09 09:24:34;;;;;;;;;;;;;;;25.83;55.17;100185.25;6241200;23;19927;-73
2022/07/09 09:27:03;;;;;;;;;;;;;;;25.87;52.75;100177.50;6240613;23;19919;-73
2022/07/09 09:29:28;;;;;;;;;;;;;;;25.94;52.40;100167.41;6241327;23;20034;-75
2022/07/09 09:31:54;;;;;;;;;;;;;;;26.03;51.70;100166.06;6240931;23;19947;-73
2022/07/09 09:34:20;;;;;;;;;;;;;;;26.10;53.25;100164.91;6214184;23;19915;-74
2022/07/09 09:36:54;;;;;;;;;;;;;;;26.20;50.51;100169.78;6240730;23;19950;-74
2022/07/09 09:39:20;;;;;;;;;;;;;;;26.33;50.29;100161.47;6241156;23;20328;-74
2022/07/09 09:41:46;;;;;;;;;;;;;;;26.39;50.47;100160.56;6240361;23;19916;-75
2022/07/09 09:44:13;;;;;;;;;;;;;;;26.42;50.29;100157.41;6241308;23;20041;-74
2022/07/09 09:46:39;;;;;;;;;;;;;;;26.47;49.34;100152.13;6241053;23;20372;-74
2022/07/09 09:49:08;;;;;;;;;;;;;;;26.54;48.39;100162.03;6240425;23;19918;-73
2022/07/09 09:51:56;;;;;;;;;;;;;;;26.56;47.63;100147.22;6240881;23;20427;-74
2022/07/09 09:54:22;;;;;;;;;;;;;;;26.59;47.49;100146.72;6241161;23;20347;-74
2022/07/09 09:56:48;;;;;;;;;;;;;;;26.66;47.77;100143.91;6240139;23;19939;-73
2022/07/09 09:59:14;;;;;;;;;;;;;;;26.73;49.82;100147.34;6240985;23;20391;-74
2022/07/09 10:01:40;;;;;;;;;;;;;;;26.79;48.96;100143.72;6240982;23;20007;-74
2022/07/09 10:04:06;;;;;;;;;;;;;;;26.81;49.29;100144.28;6240126;23;20333;-73
2022/07/09 10:06:35;;;;;;;;;;;;;;;26.82;49.20;100137.81;6213497;23;19918;-74
2022/07/09 10:09:01;;;;;;;;;;;;;;;26.80;47.77;100139.94;6240192;23;19954;-74
2022/07/09 10:11:37;;;;;;;;;;;;;;;26.83;47.56;100134.03;6240659;23;19911;-74
2022/07/09 10:14:02;;;;;;;;;;;;;;;26.89;50.10;100128.56;6240531;23;20335;-73
2022/07/09 10:16:34;;;;;;;;;;;;;;;26.96;48.97;100128.44;6241183;23;19945;-73
2022/07/09 10:19:00;;;;;;;;;;;;;;;27.08;48.59;100129.25;6213409;23;20374;-73
2022/07/09 10:21:39;;;;;;;;;;;;;;;27.18;47.80;100132.19;6213949;23;19998;-73
2022/07/09 10:24:05;;;;;;;;;;;;;;;27.26;47.79;100134.56;6241011;23;20339;-73
2022/07/09 10:26:38;;;;;;;;;;;;;;;27.29;47.45;100131.34;6248000;23;19907;-75
2022/07/09 10:29:17;;;;;;;;;;;;;;;27.34;46.84;100124.38;6241378;23;19915;-75
2022/07/09 10:31:43;;;;;;;;;;;;;;;27.40;47.10;100118.00;6241015;23;19911;-75
2022/07/09 10:34:14;;;;;;;;;;;;;;;27.41;46.98;100119.66;6241007;23;19982;-75
2022/07/09 10:36:39;;;;;;;;;;;;;;;27.50;44.91;100120.97;6240734;23;19915;-75
2022/07/09 10:39:11;;;;;;;;;;;;;;;27.51;44.24;100120.72;6240170;23;19916;-75
2022/07/09 10:41:37;;;;;;;;;;;;;;;27.52;44.94;100111.53;6240793;23;19912;-76
2022/07/09 10:44:02;;;;;;;;;;;;;;;27.58;44.70;100109.75;6240409;23;19918;-75
2022/07/09 10:46:28;;;;;;;;;;;;;;;27.64;44.24;100106.09;6214062;23;19990;-75
2022/07/09 10:48:58;;;;;;;;;;;;;;;27.71;43.52;100104.06;6240386;23;19973;-75
2022/07/09 10:51:24;;;;;;;;;;;;;;;27.79;43.30;100100.16;6240469;23;19915;-76
2022/07/09 10:53:49;;;;;;;;;;;;;;;27.87;44.06;100103.28;6213164;23;19922;-75
2022/07/09 10:56:37;;;;;;;;;;;;;;;27.84;44.35;100098.34;6240417;23;19919;-75
2022/07/09 10:59:02;;;;;;;;;;;;;;;27.78;45.47;100093.91;6212787;23;20240;-73
2022/07/09 11:01:29;;;;;;;;;;;;;;;27.84;44.43;100092.94;6240588;23;19998;-75
2022/07/09 11:03:55;;;;;;;;;;;;;;;27.90;44.45;100083.81;6239950;23;19990;-75
2022/07/09 11:06:20;;;;;;;;;;;;;;;27.94;43.52;100082.25;6240682;23;19945;-75
2022/07/09 11:08:45;;;;;;;;;;;;;;;28.02;44.71;100073.75;6239673;23;19919;-74
2022/07/09 11:11:11;;;;;;;;;;;;;;;28.08;44.49;100067.34;6240297;23;19984;-75
2022/07/09 11:13:36;;;;;;;;;;;;;;;28.15;43.17;100077.25;6238662;23;19911;-76
2022/07/09 11:16:02;;;;;;;;;;;;;;;28.15;43.62;100069.94;6213621;23;20010;-75
2022/07/09 11:18:28;;;;;;;;;;;;;;;28.28;42.31;100071.47;6241540;23;19919;-74
2022/07/09 11:20:54;;;;;;;;;;;;;;;28.36;42.67;100065.66;6242283;23;19907;-73
2022/07/09 11:23:19;;;;;;;;;;;;;;;28.39;42.07;100068.69;6241967;23;20363;-74
2022/07/09 11:25:46;;;;;;;;;;;;;;;28.43;42.65;100064.44;6242166;23;19911;-74
2022/07/09 11:28:18;;;;;;;;;;;;;;;28.47;42.27;100060.16;6241774;23;19911;-73
2022/07/09 11:30:44;;;;;;;;;;;;;;;28.54;40.77;100053.72;6241966;23;20336;-75
2022/07/09 11:33:13;;;;;;;;;;;;;;;28.59;39.92;100041.03;6215444;23;19946;-75
2022/07/09 11:35:38;;;;;;;;;;;;;;;28.62;40.82;100046.00;6242717;23;19911;-75
2022/07/09 11:38:06;;;;;;;;;;;;;;;28.66;39.62;100041.72;6242301;23;19922;-76
2022/07/09 11:40:57;;;;;;;;;;;;;;;28.75;38.51;100040.22;6215162;23;20210;-74
2022/07/09 11:43:22;;;;;;;;;;;;;;;28.83;37.67;100042.53;6240874;23;19919;-74
2022/07/09 11:45:53;;;;;;;;;;;;;;;28.88;38.10;100034.44;6240024;23;19934;-74
2022/07/09 11:48:19;;;;;;;;;;;;;;;28.95;37.96;100036.16;6242259;23;19922;-74
2022/07/09 11:50:46;;;;;;;;;;;;;;;29.00;38.85;100028.06;6241377;23;19911;-74
2022/07/09 11:53:21;;;;;;;;;;;;;;;29.01;39.02;100027.00;6242092;23;19949;-75
2022/07/09 11:55:57;;;;;;;;;;;;;;;28.99;38.78;100019.09;6241549;23;19923;-74
2022/07/09 11:58:22;;;;;;;;;;;;;;;28.98;37.73;100022.09;6241972;23;19918;-74
2022/07/09 12:00:48;;;;;;;;;;;;;;;29.00;38.37;100019.91;6241387;23;19915;-74
2022/07/09 12:03:22;;;;;;;;;;;;;;;29.10;39.27;100020.88;6242248;23;19956;-74
2022/07/09 12:05:50;;;;;;;;;;;;;;;29.24;38.29;100011.28;6242554;23;20248;-74
2022/07/09 12:08:25;;;;;;;;;;;;;;;29.33;37.45;100014.41;6242250;23;19911;-74
2022/07/09 12:10:50;;;;;;;;;;;;;;;29.40;37.37;100015.00;6241530;23;19911;-74
2022/07/09 12:13:16;;;;;;;;;;;;;;;29.49;36.27;100001.78;6244198;23;19919;-73
2022/07/09 12:15:41;;;;;;;;;;;;;;;29.54;36.23;100002.66;6244124;23;20343;-75
2022/07/09 12:18:07;;;;;;;;;;;;;;;29.60;35.16;100003.53;6244825;23;19911;-75
2022/07/09 12:20:32;;;;;;;;;;;;;;;29.69;35.42;99997.38;6245043;23;19907;-74
2022/07/09 12:22:58;;;;;;;;;;;;;;;29.85;36.08;99995.63;6217820;23;19918;-74
2022/07/09 12:25:23;;;;;;;;;;;;;;;30.10;35.27;99995.88;6244329;23;19951;-74
2022/07/09 12:27:49;;;;;;;;;;;;;;;30.18;33.40;99994.56;6242874;23;19918;-75
2022/07/09 12:30:15;;;;;;;;;;;;;;;30.34;34.10;99990.88;6242599;23;19912;-74
2022/07/09 12:32:41;;;;;;;;;;;;;;;30.62;33.12;99983.47;6242862;23;20394;-74
2022/07/09 12:35:06;;;;;;;;;;;;;;;30.80;33.27;99975.69;6245049;23;19915;-76